createdAt,value
2018-07-07T06:29:32.532Z,100121.53
2018-07-07T06:42:41.767Z,100118.17
2018-07-07T06:46:45.473Z,100126.45
2018-07-07T06:50:49.010Z,100119.55
2018-07-07T06:54:52.467Z,100122.55
2018-07-07T06:58:55.905Z,100125.52
2018-07-07T07:02:59.517Z,100118.64
2018-07-07T07:07:02.934Z,100120.61
2018-07-07T07:11:06.362Z,100119.53
2018-07-07T07:15:09.793Z,100116.13
2018-07-07T07:19:13.530Z,100117.55
2018-07-07T07:23:16.967Z,100110.25
2018-07-07T07:27:20.471Z,100112.34
2018-07-07T07:31:24.015Z,100110.93
2018-07-07T07:35:27.406Z,100111.18
2018-07-07T07:39:31.167Z,100111.59
2018-07-07T07:43:34.549Z,100102.45
2018-07-07T07:47:37.962Z,100097.59
2018-07-07T07:51:41.603Z,100092.33
2018-07-07T07:55:45.122Z,100102.51
2018-07-07T07:59:48.770Z,100095.09
2018-07-07T08:03:52.206Z,100094.30
2018-07-07T08:07:55.683Z,100097.92
2018-07-07T08:11:59.113Z,100103.16
2018-07-07T08:16:02.544Z,100100.27
2018-07-07T08:20:06.010Z,100096.27
2018-07-07T08:24:09.469Z,100097.84
2018-07-07T08:28:12.967Z,100095.61
2018-07-07T08:32:16.397Z,100090.92
2018-07-07T08:36:35.294Z,100097.23
2018-07-07T08:40:38.730Z,100099.58
2018-07-07T08:44:42.135Z,100101.55
2018-07-07T08:48:45.562Z,100096.09
2018-07-07T08:52:51.940Z,100092.38
2018-07-07T08:56:55.341Z,100096.95
2018-07-07T09:00:58.720Z,100101.33
2018-07-07T09:05:02.140Z,100093.81
2018-07-07T09:09:06.119Z,100095.38
2018-07-07T09:13:09.543Z,100096.44
2018-07-07T09:17:12.911Z,100098.98
2018-07-07T09:44:25.558Z,100081.34
2018-07-07T09:48:28.986Z,100091.33
2018-07-07T09:52:32.409Z,100092.82
2018-07-07T09:56:35.813Z,100078.85
2018-07-07T10:00:41.612Z,100079.80
2018-07-07T10:09:23.163Z,100078.45
2018-07-07T10:13:26.562Z,100077.28
2018-07-07T10:17:29.994Z,100075.48
2018-07-07T10:21:33.405Z,100076.31
2018-07-07T10:25:36.814Z,100070.55
2018-07-07T10:29:40.206Z,100073.41
2018-07-07T10:33:43.618Z,100074.48
2018-07-07T10:37:47.033Z,100069.91
2018-07-07T10:41:50.534Z,100076.16
2018-07-07T10:45:54.168Z,100075.34
2018-07-07T10:49:57.352Z,100066.08
2018-07-07T10:54:00.753Z,100063.14
2018-07-07T10:58:04.197Z,100059.79
2018-07-07T11:02:07.582Z,100054.15
2018-07-07T11:06:10.964Z,100046.87
2018-07-07T11:10:14.352Z,100036.13
2018-07-07T11:14:17.799Z,100045.69
2018-07-07T11:18:21.211Z,100048.06
2018-07-07T11:22:24.624Z,100030.77
2018-07-07T11:26:28.255Z,100023.10
2018-07-07T11:30:31.646Z,100030.34
2018-07-07T11:34:35.058Z,100030.05
2018-07-07T11:38:38.470Z,100021.34
2018-07-07T11:42:42.084Z,100022.36
2018-07-07T11:46:45.616Z,100026.77
2018-07-07T11:50:49.317Z,100014.02
2018-07-07T11:54:52.715Z,100004.45
2018-07-07T11:58:56.168Z,100012.50
2018-07-07T12:02:59.581Z,100005.53
2018-07-07T12:07:02.955Z,99999.55
2018-07-07T12:11:06.569Z,99992.41
2018-07-07T12:15:09.972Z,99998.56
2018-07-07T12:19:13.363Z,99994.13
2018-07-07T12:23:16.858Z,99992.70
2018-07-07T12:27:20.225Z,99998.39
2018-07-07T12:31:23.688Z,99991.41
2018-07-07T12:35:27.082Z,99985.44
2018-07-07T12:39:30.456Z,99983.26
2018-07-07T12:43:33.896Z,99965.92
2018-07-07T12:47:37.274Z,99963.30
2018-07-07T12:51:40.676Z,99969.66
2018-07-07T12:55:44.064Z,99959.67
2018-07-07T12:59:47.454Z,99963.63
2018-07-07T13:03:50.853Z,99951.48
2018-07-07T13:07:54.258Z,99950.91
2018-07-07T13:11:57.703Z,99955.05
2018-07-07T13:16:01.164Z,99949.73
2018-07-07T13:20:04.734Z,99960.95
2018-07-07T13:24:08.110Z,99951.98
2018-07-07T13:28:11.531Z,99950.05
2018-07-07T13:32:14.958Z,99941.05
2018-07-07T13:36:18.342Z,99935.19
2018-07-07T13:40:21.717Z,99932.20
2018-07-07T13:44:25.119Z,99939.91
2018-07-07T13:48:28.630Z,99937.48
2018-07-07T13:52:32.035Z,99932.08
2018-07-07T13:56:35.421Z,99935.77
2018-07-07T14:00:38.831Z,99940.19
2018-07-07T14:04:42.243Z,99935.19
2018-07-07T14:08:45.622Z,99931.59
2018-07-07T14:12:49.058Z,99931.80
2018-07-07T14:16:52.480Z,99928.45
2018-07-07T14:20:56.009Z,99928.52
2018-07-07T14:24:59.378Z,99926.49
2018-07-07T14:29:02.811Z,99923.97
2018-07-07T14:33:06.222Z,99927.88
2018-07-07T14:37:09.607Z,99918.41
2018-07-07T14:41:17.379Z,99932.33
2018-07-07T14:45:25.415Z,99921.39
2018-07-07T14:49:28.802Z,99926.67
2018-07-07T14:53:32.202Z,99907.17
2018-07-07T14:57:36.001Z,99907.17
2018-07-07T15:01:39.420Z,99908.34
2018-07-07T15:05:42.805Z,99900.73
2018-07-07T15:09:46.317Z,99901.77
2018-07-07T15:13:49.745Z,99901.01
2018-07-07T15:17:53.172Z,99890.30
2018-07-07T15:21:56.592Z,99898.40
2018-07-07T15:26:00.061Z,99893.13
2018-07-07T15:30:03.532Z,99903.53
2018-07-07T15:34:06.994Z,99895.89
2018-07-07T15:38:10.383Z,99894.27
2018-07-07T15:42:13.790Z,99886.44
2018-07-07T15:46:17.198Z,99880.55
2018-07-07T15:50:20.609Z,99886.16
2018-07-07T15:54:23.975Z,99880.27
2018-07-07T15:58:27.410Z,99878.91
2018-07-07T16:02:30.845Z,99877.26
2018-07-07T16:06:34.235Z,99878.83
2018-07-07T16:10:37.658Z,99873.02
2018-07-07T16:14:41.053Z,99870.33
2018-07-07T16:18:44.430Z,99870.72
2018-07-07T16:22:47.884Z,99873.42
2018-07-07T16:26:51.303Z,99870.14
2018-07-07T16:30:54.690Z,99861.86
2018-07-07T16:34:58.088Z,99868.61
2018-07-07T16:39:01.444Z,99861.73
2018-07-07T16:43:04.894Z,99865.02
2018-07-07T16:47:08.328Z,99861.45
2018-07-07T16:51:12.121Z,99854.39
2018-07-07T16:55:15.493Z,99858.35
2018-07-07T16:59:19.082Z,99846.30
2018-07-07T17:03:22.483Z,99847.19
2018-07-07T17:07:25.880Z,99851.23
2018-07-07T17:11:29.265Z,99856.23
2018-07-07T17:15:33.600Z,99856.81
2018-07-07T17:19:37.007Z,99858.80
2018-07-07T17:23:40.461Z,99857.63
2018-07-07T17:27:43.941Z,99861.00
2018-07-07T17:31:48.093Z,99860.14
2018-07-07T17:35:51.453Z,99862.84
2018-07-07T17:39:54.876Z,99872.47
2018-07-07T17:43:58.322Z,99869.63
2018-07-07T17:48:01.756Z,99873.98
2018-07-07T17:52:05.168Z,99880.99
2018-07-07T17:56:08.638Z,99884.27
2018-07-07T18:00:12.433Z,99875.58
2018-07-07T18:04:15.879Z,99882.50
2018-07-07T18:08:19.265Z,99889.05
2018-07-07T18:12:22.670Z,99887.67
2018-07-07T18:16:26.086Z,99890.14
2018-07-07T18:20:29.462Z,99895.42
2018-07-07T18:24:32.862Z,99898.50
2018-07-07T18:28:36.258Z,99906.27
2018-07-07T18:32:39.649Z,99904.86
2018-07-07T18:36:43.228Z,99912.25
2018-07-07T18:40:46.630Z,99918.06
2018-07-07T18:44:50.045Z,99913.98
2018-07-07T18:48:53.554Z,99915.98
2018-07-07T18:52:56.989Z,99922.59
2018-07-07T18:57:00.351Z,99923.89
2018-07-07T19:01:04.072Z,99933.66
2018-07-07T19:05:07.550Z,99935.92
2018-07-07T19:09:10.952Z,99942.05
2018-07-07T19:13:14.374Z,99943.70
2018-07-07T19:17:17.774Z,99951.70
2018-07-07T19:21:26.433Z,99966.83
2018-07-07T19:25:35.128Z,99970.23
2018-07-07T19:29:38.518Z,99979.03
2018-07-07T19:33:47.117Z,99977.25
2018-07-07T19:37:50.521Z,99992.06
2018-07-07T19:41:53.983Z,99992.44
2018-07-07T19:45:57.357Z,99993.14
2018-07-07T19:50:00.803Z,99995.20
2018-07-07T19:54:04.192Z,99993.77
2018-07-07T19:58:07.594Z,100000.94
2018-07-07T20:02:11.003Z,100004.55
2018-07-07T20:06:14.397Z,100011.52
2018-07-07T20:10:18.048Z,100007.55
2018-07-07T20:14:25.098Z,100010.11
2018-07-07T20:18:38.661Z,100007.49
2018-07-07T20:22:42.193Z,100020.02
2018-07-07T20:26:50.631Z,100022.19
2018-07-07T20:30:57.623Z,100015.29
2018-07-07T20:35:01.049Z,100019.66
2018-07-07T20:39:04.699Z,100016.86
2018-07-07T20:43:08.179Z,100018.55
2018-07-07T20:47:11.569Z,100017.95
2018-07-07T20:51:14.978Z,100024.11
2018-07-07T20:55:18.426Z,100029.33
2018-07-07T20:59:21.830Z,100031.83
2018-07-07T21:03:25.248Z,100039.63
2018-07-07T21:07:28.674Z,100042.57
2018-07-07T21:11:32.097Z,100044.33
2018-07-07T21:15:35.480Z,100044.14
2018-07-07T21:19:38.902Z,100047.55
2018-07-07T21:23:42.374Z,100045.02
2018-07-07T21:27:45.676Z,100047.16
2018-07-07T21:31:49.114Z,100044.69
2018-07-07T21:35:52.589Z,100058.77
2018-07-07T21:39:55.995Z,100060.41
2018-07-07T21:43:59.383Z,100054.78
2018-07-07T21:48:02.820Z,100049.16
2018-07-07T21:52:06.332Z,100047.52
2018-07-07T21:56:09.837Z,100048.64
2018-07-07T22:00:17.469Z,100050.70
2018-07-07T22:04:26.268Z,100043.78
2018-07-07T22:08:29.780Z,100048.88
2018-07-07T22:12:33.196Z,100052.33
2018-07-07T22:16:36.735Z,100048.13
2018-07-07T22:20:40.171Z,100060.08
2018-07-07T22:24:44.160Z,100055.37
2018-07-07T22:28:47.582Z,100053.39
2018-07-07T22:32:51.045Z,100052.16
2018-07-07T22:36:54.670Z,100054.14
2018-07-07T22:40:58.316Z,100048.51
2018-07-07T22:45:01.744Z,100053.11
2018-07-07T22:49:05.174Z,100056.43
2018-07-07T22:53:08.604Z,100051.29
2018-07-07T22:57:12.006Z,100056.42
2018-07-07T23:01:15.410Z,100050.70
2018-07-07T23:09:21.238Z,100044.36
2018-07-07T23:13:24.641Z,100049.42
2018-07-07T23:17:28.058Z,100051.34
2018-07-07T23:21:31.610Z,100056.45
2018-07-07T23:25:35.072Z,100057.51
2018-07-07T23:29:38.473Z,100041.97
2018-07-07T23:33:41.904Z,100053.73
2018-07-07T23:37:45.332Z,100049.82
2018-07-07T23:41:48.747Z,100046.48
2018-07-07T23:45:52.159Z,100047.58
2018-07-07T23:49:55.567Z,100045.06
2018-07-07T23:53:58.979Z,100040.75
2018-07-07T23:58:02.416Z,100039.56
